Terminal Aerodrome Forecast
Issued by NWS Atlanta, GA

Home | Current Version | Previous Version | Text Only | Print | Product List | Glossary On
Versions: 1 2 3 4 5 6 7 8 9 10 11 12 13 14 15 16 17 18 19 20 21 22 23 24
000
FTUS42 KFFC 162300
TAFCSG
TAF
KCSG 162328Z 1700/1724 32005KT P6SM SCT250
     FM170700 33003KT 6SM BR FEW250
     FM171500 34005KT P6SM FEW040 FEW250=

USA.gov is the U.S. government's official web portal to all federal, state and local government web resources and services.